sensor_id;sensor_type;location;lat;lon;timestamp;pressure;altitude;pressure_sealevel;temperature;humidity
75221;BME280;63802;53.232;6.570;2023-02-28T00:01:12;103336.50;;;3.61;90.30
75221;BME280;63802;53.232;6.570;2023-02-28T00:03:38;103329.44;;;3.60;90.08
75221;BME280;63802;53.232;6.570;2023-02-28T00:06:04;103312.91;;;3.52;90.38
75221;BME280;63802;53.232;6.570;2023-02-28T00:08:31;103326.19;;;3.58;90.27
75221;BME280;63802;53.232;6.570;2023-02-28T00:11:01;103327.28;;;3.57;90.06
75221;BME280;63802;53.232;6.570;2023-02-28T00:13:26;103311.78;;;3.48;90.29
75221;BME280;63802;53.232;6.570;2023-02-28T00:16:03;103321.88;;;3.57;89.94
75221;BME280;63802;53.232;6.570;2023-02-28T00:18:29;103307.81;;;3.55;90.37
75221;BME280;63802;53.232;6.570;2023-02-28T00:20:54;103316.47;;;3.57;90.42
75221;BME280;63802;53.232;6.570;2023-02-28T00:23:20;103315.97;;;3.60;90.34
75221;BME280;63802;53.232;6.570;2023-02-28T00:25:48;103300.78;;;3.54;90.13
75221;BME280;63802;53.232;6.570;2023-02-28T00:28:14;103304.66;;;3.63;90.48
75221;BME280;63802;53.232;6.570;2023-02-28T00:30:39;103302.50;;;3.65;90.50
75221;BME280;63802;53.232;6.570;2023-02-28T00:33:05;103310.31;;;3.62;90.65
75221;BME280;63802;53.232;6.570;2023-02-28T00:35:30;103297.81;;;3.56;90.57
75221;BME280;63802;53.232;6.570;2023-02-28T00:37:56;103286.97;;;3.51;90.63
75221;BME280;63802;53.232;6.570;2023-02-28T00:40:22;103310.31;;;3.62;90.51
75221;BME280;63802;53.232;6.570;2023-02-28T00:42:47;103303.78;;;3.58;90.63
75221;BME280;63802;53.232;6.570;2023-02-28T00:45:13;103318.41;;;3.62;90.39
75221;BME280;63802;53.232;6.570;2023-02-28T00:47:41;103299.16;;;3.53;90.98
75221;BME280;63802;53.232;6.570;2023-02-28T00:50:07;103313.31;;;3.65;90.83
75221;BME280;63802;53.232;6.570;2023-02-28T00:52:33;103306.28;;;3.64;91.00
75221;BME280;63802;53.232;6.570;2023-02-28T00:54:59;103309.34;;;3.73;91.25
75221;BME280;63802;53.232;6.570;2023-02-28T00:57:24;103312.31;;;3.71;91.26
75221;BME280;63802;53.232;6.570;2023-02-28T00:59:49;103285.69;;;3.58;91.07
75221;BME280;63802;53.232;6.570;2023-02-28T01:02:15;103307.41;;;3.68;91.10
75221;BME280;63802;53.232;6.570;2023-02-28T01:04:41;103294.97;;;3.67;91.00
75221;BME280;63802;53.232;6.570;2023-02-28T01:07:06;103298.75;;;3.66;91.00
75221;BME280;63802;53.232;6.570;2023-02-28T01:09:32;103302.22;;;3.62;91.43
75221;BME280;63802;53.232;6.570;2023-02-28T01:11:57;103289.50;;;3.57;91.13
75221;BME280;63802;53.232;6.570;2023-02-28T01:14:23;103300.06;;;3.64;91.27
75221;BME280;63802;53.232;6.570;2023-02-28T01:16:48;103303.06;;;3.67;91.47
75221;BME280;63802;53.232;6.570;2023-02-28T01:19:14;103298.25;;;3.69;91.21
75221;BME280;63802;53.232;6.570;2023-02-28T01:21:40;103295.56;;;3.69;91.59
75221;BME280;63802;53.232;6.570;2023-02-28T01:24:06;103284.16;;;3.67;91.38
75221;BME280;63802;53.232;6.570;2023-02-28T01:26:32;103287.97;;;3.66;91.57
75221;BME280;63802;53.232;6.570;2023-02-28T01:28:57;103292.53;;;3.66;91.57
75221;BME280;63802;53.232;6.570;2023-02-28T01:31:23;103301.50;;;3.71;91.44
75221;BME280;63802;53.232;6.570;2023-02-28T01:33:49;103280.34;;;3.63;91.42
75221;BME280;63802;53.232;6.570;2023-02-28T01:36:19;103298.31;;;3.79;91.46
75221;BME280;63802;53.232;6.570;2023-02-28T01:38:46;103288.06;;;3.76;91.57
75221;BME280;63802;53.232;6.570;2023-02-28T01:41:21;103275.63;;;3.75;91.58
75221;BME280;63802;53.232;6.570;2023-02-28T01:46:14;103290.28;;;3.84;91.56
75221;BME280;63802;53.232;6.570;2023-02-28T01:48:51;103283.25;;;3.83;91.54
75221;BME280;63802;53.232;6.570;2023-02-28T01:51:44;103281.63;;;3.82;91.64
75221;BME280;63802;53.232;6.570;2023-02-28T01:54:16;103263.03;;;3.86;92.04
75221;BME280;63802;53.232;6.570;2023-02-28T01:56:52;103263.53;;;3.83;91.83
75221;BME280;63802;53.232;6.570;2023-02-28T01:59:23;103255.13;;;3.79;92.09
75221;BME280;63802;53.232;6.570;2023-02-28T02:01:52;103254.84;;;3.76;92.16
75221;BME280;63802;53.232;6.570;2023-02-28T02:04:19;103259.41;;;3.75;92.26
75221;BME280;63802;53.232;6.570;2023-02-28T02:06:47;103254.56;;;3.77;92.42
75221;BME280;63802;53.232;6.570;2023-02-28T02:09:13;103239.34;;;3.66;92.21
75221;BME280;63802;53.232;6.570;2023-02-28T02:11:40;103258.09;;;3.78;92.51
75221;BME280;63802;53.232;6.570;2023-02-28T02:17:05;103257.25;;;3.77;92.61
75221;BME280;63802;53.232;6.570;2023-02-28T02:39:44;103235.38;;;3.74;92.78
75221;BME280;63802;53.232;6.570;2023-02-28T02:42:31;103241.06;;;3.77;92.61
75221;BME280;63802;53.232;6.570;2023-02-28T02:47:53;103226.44;;;3.73;92.99
75221;BME280;63802;53.232;6.570;2023-02-28T02:50:32;103243.25;;;3.80;92.86
75221;BME280;63802;53.232;6.570;2023-02-28T02:53:01;103234.06;;;3.76;92.92
75221;BME280;63802;53.232;6.570;2023-02-28T02:55:29;103255.38;;;3.78;92.78
75221;BME280;63802;53.232;6.570;2023-02-28T02:58:01;103242.69;;;3.78;92.93
75221;BME280;63802;53.232;6.570;2023-02-28T03:00:38;103243.72;;;3.72;93.09
75221;BME280;63802;53.232;6.570;2023-02-28T03:03:08;103244.03;;;3.76;93.30
75221;BME280;63802;53.232;6.570;2023-02-28T03:05:55;103257.03;;;3.79;93.22
75221;BME280;63802;53.232;6.570;2023-02-28T03:08:22;103248.59;;;3.75;92.94
75221;BME280;63802;53.232;6.570;2023-02-28T03:10:50;103235.56;;;3.67;93.50
75221;BME280;63802;53.232;6.570;2023-02-28T03:21:43;103253.06;;;3.91;93.43
75221;BME280;63802;53.232;6.570;2023-02-28T03:26:45;103247.09;;;3.89;93.50
75221;BME280;63802;53.232;6.570;2023-02-28T03:29:28;103242.78;;;3.88;93.56
75221;BME280;63802;53.232;6.570;2023-02-28T03:32:14;103241.66;;;3.84;93.81
75221;BME280;63802;53.232;6.570;2023-02-28T03:34:54;103238.97;;;3.84;93.53
75221;BME280;63802;53.232;6.570;2023-02-28T03:37:23;103257.88;;;3.84;93.88
75221;BME280;63802;53.232;6.570;2023-02-28T03:39:57;103244.06;;;3.81;93.77
75221;BME280;63802;53.232;6.570;2023-02-28T03:42:27;103231.31;;;3.71;93.74
75221;BME280;63802;53.232;6.570;2023-02-28T03:44:58;103259.47;;;3.80;93.95
75221;BME280;63802;53.232;6.570;2023-02-28T03:47:37;103250.75;;;3.73;93.65
75221;BME280;63802;53.232;6.570;2023-02-28T03:50:15;103247.50;;;3.71;93.75
75221;BME280;63802;53.232;6.570;2023-02-28T03:53:19;103251.22;;;3.65;93.63
75221;BME280;63802;53.232;6.570;2023-02-28T03:55:44;103232.03;;;3.35;93.81
75221;BME280;63802;53.232;6.570;2023-02-28T03:58:14;103256.31;;;3.35;93.80
75221;BME280;63802;53.232;6.570;2023-02-28T04:00:46;103253.25;;;3.26;93.60
75221;BME280;63802;53.232;6.570;2023-02-28T04:03:13;103255.38;;;3.24;93.84
75221;BME280;63802;53.232;6.570;2023-02-28T04:05:59;103252.41;;;3.21;93.63
75221;BME280;63802;53.232;6.570;2023-02-28T04:08:24;103263.47;;;3.24;94.06
75221;BME280;63802;53.232;6.570;2023-02-28T04:11:00;103250.75;;;3.20;94.21
75221;BME280;63802;53.232;6.570;2023-02-28T04:13:28;103262.09;;;3.22;94.17
75221;BME280;63802;53.232;6.570;2023-02-28T04:15:54;103269.03;;;3.13;94.11
75221;BME280;63802;53.232;6.570;2023-02-28T04:18:19;103264.38;;;3.08;93.94
75221;BME280;63802;53.232;6.570;2023-02-28T04:20:45;103266.03;;;3.09;94.20
75221;BME280;63802;53.232;6.570;2023-02-28T04:23:10;103259.19;;;3.02;94.11
75221;BME280;63802;53.232;6.570;2023-02-28T04:25:35;103271.09;;;3.06;94.21
75221;BME280;63802;53.232;6.570;2023-02-28T04:28:01;103272.16;;;3.05;94.03
75221;BME280;63802;53.232;6.570;2023-02-28T04:30:26;103262.38;;;2.99;94.28
75221;BME280;63802;53.232;6.570;2023-02-28T04:32:52;103261.69;;;2.87;94.35
75221;BME280;63802;53.232;6.570;2023-02-28T04:35:17;103263.91;;;2.90;94.18
75221;BME280;63802;53.232;6.570;2023-02-28T04:37:43;103268.72;;;2.88;94.47
75221;BME280;63802;53.232;6.570;2023-02-28T04:40:08;103269.72;;;2.82;94.52
75221;BME280;63802;53.232;6.570;2023-02-28T04:42:34;103272.13;;;2.78;94.47
75221;BME280;63802;53.232;6.570;2023-02-28T04:45:04;103268.25;;;2.74;94.43
75221;BME280;63802;53.232;6.570;2023-02-28T04:47:30;103264.72;;;2.68;94.27
75221;BME280;63802;53.232;6.570;2023-02-28T04:49:56;103261.19;;;2.68;94.51
75221;BME280;63802;53.232;6.570;2023-02-28T04:52:21;103266.81;;;2.66;94.73
75221;BME280;63802;53.232;6.570;2023-02-28T04:54:47;103264.56;;;2.58;94.33
75221;BME280;63802;53.232;6.570;2023-02-28T04:57:12;103276.47;;;2.62;94.52
75221;BME280;63802;53.232;6.570;2023-02-28T04:59:38;103267.19;;;2.53;94.62
75221;BME280;63802;53.232;6.570;2023-02-28T05:02:03;103263.41;;;2.54;94.57
75221;BME280;63802;53.232;6.570;2023-02-28T05:04:35;103265.53;;;2.52;94.62
75221;BME280;63802;53.232;6.570;2023-02-28T05:07:01;103264.75;;;2.52;94.42
75221;BME280;63802;53.232;6.570;2023-02-28T05:09:27;103278.44;;;2.50;94.79
75221;BME280;63802;53.232;6.570;2023-02-28T05:11:53;103271.38;;;2.44;94.63
75221;BME280;63802;53.232;6.570;2023-02-28T05:14:19;103280.78;;;2.42;94.64
75221;BME280;63802;53.232;6.570;2023-02-28T05:16:44;103277.50;;;2.40;94.75
75221;BME280;63802;53.232;6.570;2023-02-28T05:19:10;103257.25;;;2.37;94.54
75221;BME280;63802;53.232;6.570;2023-02-28T05:21:38;103257.81;;;2.39;94.35
75221;BME280;63802;53.232;6.570;2023-02-28T05:24:09;103261.66;;;2.43;94.66
75221;BME280;63802;53.232;6.570;2023-02-28T05:26:41;103265.97;;;2.44;94.68
75221;BME280;63802;53.232;6.570;2023-02-28T05:29:07;103273.72;;;2.41;94.92
75221;BME280;63802;53.232;6.570;2023-02-28T05:31:32;103275.28;;;2.37;94.84
75221;BME280;63802;53.232;6.570;2023-02-28T05:33:58;103267.88;;;2.27;94.63
75221;BME280;63802;53.232;6.570;2023-02-28T05:36:24;103273.09;;;2.17;94.73
75221;BME280;63802;53.232;6.570;2023-02-28T05:38:50;103272.63;;;2.20;94.84
75221;BME280;63802;53.232;6.570;2023-02-28T05:41:17;103286.66;;;2.22;94.70
75221;BME280;63802;53.232;6.570;2023-02-28T05:43:44;103275.81;;;2.17;94.79
75221;BME280;63802;53.232;6.570;2023-02-28T05:46:12;103273.50;;;2.09;94.70
75221;BME280;63802;53.232;6.570;2023-02-28T05:48:39;103284.22;;;2.21;94.69
75221;BME280;63802;53.232;6.570;2023-02-28T05:51:05;103286.19;;;2.25;94.95
75221;BME280;63802;53.232;6.570;2023-02-28T05:53:32;103285.56;;;2.23;94.71
75221;BME280;63802;53.232;6.570;2023-02-28T05:55:58;103269.94;;;2.20;95.10
75221;BME280;63802;53.232;6.570;2023-02-28T05:58:24;103271.81;;;2.20;95.25
75221;BME280;63802;53.232;6.570;2023-02-28T06:00:59;103287.47;;;2.23;94.95
75221;BME280;63802;53.232;6.570;2023-02-28T06:03:25;103260.22;;;2.02;94.82
75221;BME280;63802;53.232;6.570;2023-02-28T06:05:50;103289.75;;;2.14;94.96
75221;BME280;63802;53.232;6.570;2023-02-28T06:08:16;103289.28;;;2.17;95.23
75221;BME280;63802;53.232;6.570;2023-02-28T06:10:45;103289.28;;;2.17;95.13
75221;BME280;63802;53.232;6.570;2023-02-28T06:13:11;103281.66;;;2.14;95.12
75221;BME280;63802;53.232;6.570;2023-02-28T06:15:38;103283.97;;;2.22;95.20
75221;BME280;63802;53.232;6.570;2023-02-28T06:18:04;103286.00;;;2.15;94.94
75221;BME280;63802;53.232;6.570;2023-02-28T06:20:29;103290.25;;;2.11;95.06
75221;BME280;63802;53.232;6.570;2023-02-28T06:22:58;103297.00;;;2.14;95.22
75221;BME280;63802;53.232;6.570;2023-02-28T06:25:27;103301.81;;;2.12;95.17
75221;BME280;63802;53.232;6.570;2023-02-28T06:27:53;103296.13;;;2.08;95.46
75221;BME280;63802;53.232;6.570;2023-02-28T06:30:19;103303.94;;;2.10;95.19
75221;BME280;63802;53.232;6.570;2023-02-28T06:32:49;103302.47;;;2.02;95.03
75221;BME280;63802;53.232;6.570;2023-02-28T06:35:14;103309.81;;;2.07;95.33
75221;BME280;63802;53.232;6.570;2023-02-28T06:37:40;103316.50;;;2.04;95.08
75221;BME280;63802;53.232;6.570;2023-02-28T06:40:06;103304.03;;;1.98;95.24
75221;BME280;63802;53.232;6.570;2023-02-28T06:42:32;103304.84;;;1.98;95.44
75221;BME280;63802;53.232;6.570;2023-02-28T06:44:58;103311.63;;;2.01;95.29
75221;BME280;63802;53.232;6.570;2023-02-28T06:47:23;103313.25;;;2.02;95.27
75221;BME280;63802;53.232;6.570;2023-02-28T06:49:49;103325.66;;;2.03;95.21
75221;BME280;63802;53.232;6.570;2023-02-28T06:52:15;103332.91;;;2.02;95.53
75221;BME280;63802;53.232;6.570;2023-02-28T06:54:40;103322.69;;;1.88;95.41
75221;BME280;63802;53.232;6.570;2023-02-28T06:57:06;103334.63;;;1.92;95.22
75221;BME280;63802;53.232;6.570;2023-02-28T06:59:31;103337.38;;;1.97;95.06
75221;BME280;63802;53.232;6.570;2023-02-28T07:01:57;103334.28;;;1.88;95.10
75221;BME280;63802;53.232;6.570;2023-02-28T07:04:23;103342.63;;;1.87;95.14
75221;BME280;63802;53.232;6.570;2023-02-28T07:06:48;103343.56;;;1.81;94.90
75221;BME280;63802;53.232;6.570;2023-02-28T07:09:14;103345.06;;;1.88;94.83
75221;BME280;63802;53.232;6.570;2023-02-28T07:11:40;103356.09;;;1.87;95.14
75221;BME280;63802;53.232;6.570;2023-02-28T07:14:06;103349.63;;;1.88;95.18
75221;BME280;63802;53.232;6.570;2023-02-28T07:16:32;103355.00;;;1.88;95.01
75221;BME280;63802;53.232;6.570;2023-02-28T07:18:57;103355.84;;;1.88;95.12
75221;BME280;63802;53.232;6.570;2023-02-28T07:21:23;103340.78;;;1.76;95.11
75221;BME280;63802;53.232;6.570;2023-02-28T07:23:49;103359.00;;;1.85;94.95
75221;BME280;63802;53.232;6.570;2023-02-28T07:26:16;103363.66;;;1.90;95.28
75221;BME280;63802;53.232;6.570;2023-02-28T07:28:43;103370.13;;;1.89;95.30
75221;BME280;63802;53.232;6.570;2023-02-28T07:31:09;103359.25;;;1.84;95.00
75221;BME280;63802;53.232;6.570;2023-02-28T07:33:35;103366.94;;;1.92;95.02
75221;BME280;63802;53.232;6.570;2023-02-28T07:36:08;103365.78;;;1.88;94.87
75221;BME280;63802;53.232;6.570;2023-02-28T07:38:36;103368.56;;;1.93;94.82
75221;BME280;63802;53.232;6.570;2023-02-28T07:41:01;103358.94;;;1.97;95.05
75221;BME280;63802;53.232;6.570;2023-02-28T07:43:31;103363.38;;;2.03;94.93
75221;BME280;63802;53.232;6.570;2023-02-28T07:46:04;103369.72;;;2.14;95.08
75221;BME280;63802;53.232;6.570;2023-02-28T07:48:30;103351.03;;;2.07;95.08
75221;BME280;63802;53.232;6.570;2023-02-28T07:50:57;103365.25;;;2.19;94.99
75221;BME280;63802;53.232;6.570;2023-02-28T07:53:23;103374.00;;;2.26;94.79
75221;BME280;63802;53.232;6.570;2023-02-28T07:55:48;103365.34;;;2.24;94.99
75221;BME280;63802;53.232;6.570;2023-02-28T07:58:14;103354.25;;;2.21;94.89
75221;BME280;63802;53.232;6.570;2023-02-28T08:00:40;103360.94;;;2.18;95.04
75221;BME280;63802;53.232;6.570;2023-02-28T08:03:06;103354.38;;;2.14;94.92
75221;BME280;63802;53.232;6.570;2023-02-28T08:05:31;103365.59;;;2.23;95.01
75221;BME280;63802;53.232;6.570;2023-02-28T08:07:57;103366.16;;;2.25;94.98
75221;BME280;63802;53.232;6.570;2023-02-28T08:10:23;103367.66;;;2.32;94.84
75221;BME280;63802;53.232;6.570;2023-02-28T08:12:49;103389.84;;;2.39;94.85
75221;BME280;63802;53.232;6.570;2023-02-28T08:15:15;103375.63;;;2.44;94.51
75221;BME280;63802;53.232;6.570;2023-02-28T08:17:44;103340.06;;;2.25;94.76
75221;BME280;63802;53.232;6.570;2023-02-28T08:20:11;103379.38;;;2.59;94.74
75221;BME280;63802;53.232;6.570;2023-02-28T08:22:36;103374.16;;;2.69;94.67
75221;BME280;63802;53.232;6.570;2023-02-28T08:25:02;103357.41;;;2.67;94.59
75221;BME280;63802;53.232;6.570;2023-02-28T08:27:28;103341.56;;;2.54;94.35
75221;BME280;63802;53.232;6.570;2023-02-28T08:29:54;103353.78;;;2.79;94.55
75221;BME280;63802;53.232;6.570;2023-02-28T08:32:19;103334.28;;;2.71;94.26
75221;BME280;63802;53.232;6.570;2023-02-28T08:34:48;103350.00;;;2.96;94.26
75221;BME280;63802;53.232;6.570;2023-02-28T08:37:14;103377.34;;;3.21;94.39
75221;BME280;63802;53.232;6.570;2023-02-28T08:39:40;103383.03;;;3.47;94.34
75221;BME280;63802;53.232;6.570;2023-02-28T08:42:08;103362.69;;;3.39;94.02
75221;BME280;63802;53.232;6.570;2023-02-28T08:44:34;103374.22;;;3.56;94.21
75221;BME280;63802;53.232;6.570;2023-02-28T08:47:03;103347.13;;;3.46;93.69
75221;BME280;63802;53.232;6.570;2023-02-28T08:49:39;103367.97;;;3.77;93.77
75221;BME280;63802;53.232;6.570;2023-02-28T08:52:08;103357.84;;;3.89;93.53
75221;BME280;63802;53.232;6.570;2023-02-28T08:54:41;103379.16;;;3.86;93.17
75221;BME280;63802;53.232;6.570;2023-02-28T08:57:07;103392.13;;;3.89;92.77
75221;BME280;63802;53.232;6.570;2023-02-28T08:59:33;103392.19;;;3.94;92.66
75221;BME280;63802;53.232;6.570;2023-02-28T09:01:58;103357.94;;;3.73;92.46
75221;BME280;63802;53.232;6.570;2023-02-28T09:04:24;103364.38;;;3.93;92.47
75221;BME280;63802;53.232;6.570;2023-02-28T09:06:50;103387.50;;;4.11;92.21
75221;BME280;63802;53.232;6.570;2023-02-28T09:09:17;103358.56;;;4.06;92.12
75221;BME280;63802;53.232;6.570;2023-02-28T09:11:43;103396.28;;;4.23;91.55
75221;BME280;63802;53.232;6.570;2023-02-28T09:14:09;103393.50;;;4.18;91.04
75221;BME280;63802;53.232;6.570;2023-02-28T09:16:36;103389.78;;;3.71;90.40
75221;BME280;63802;53.232;6.570;2023-02-28T09:19:02;103368.75;;;3.73;90.36
75221;BME280;63802;53.232;6.570;2023-02-28T09:21:28;103403.72;;;4.11;90.35
75221;BME280;63802;53.232;6.570;2023-02-28T09:23:54;103377.31;;;4.18;89.85
75221;BME280;63802;53.232;6.570;2023-02-28T09:26:26;103352.47;;;4.53;89.74
75221;BME280;63802;53.232;6.570;2023-02-28T09:28:55;103359.66;;;4.79;89.42
75221;BME280;63802;53.232;6.570;2023-02-28T09:31:26;103354.28;;;4.84;88.66
75221;BME280;63802;53.232;6.570;2023-02-28T09:33:56;103373.75;;;4.81;87.41
75221;BME280;63802;53.232;6.570;2023-02-28T09:36:27;103372.16;;;4.90;87.46
75221;BME280;63802;53.232;6.570;2023-02-28T09:39:04;103352.66;;;5.35;87.54
75221;BME280;63802;53.232;6.570;2023-02-28T09:41:41;103349.72;;;5.62;86.43
75221;BME280;63802;53.232;6.570;2023-02-28T09:44:22;103347.69;;;5.94;85.74
75221;BME280;63802;53.232;6.570;2023-02-28T09:46:54;103357.31;;;5.60;84.58
75221;BME280;63802;53.232;6.570;2023-02-28T09:49:31;103338.91;;;5.52;83.49
75221;BME280;63802;53.232;6.570;2023-02-28T09:52:04;103344.34;;;5.72;83.71
75221;BME280;63802;53.232;6.570;2023-02-28T09:54:33;103378.31;;;6.15;83.23
75221;BME280;63802;53.232;6.570;2023-02-28T10:02:40;103391.06;;;6.74;79.63
75221;BME280;63802;53.232;6.570;2023-02-28T10:05:11;103392.16;;;6.43;78.72
75221;BME280;63802;53.232;6.570;2023-02-28T10:10:21;103371.22;;;6.89;77.92
75221;BME280;63802;53.232;6.570;2023-02-28T10:12:52;103348.69;;;6.94;77.09
75221;BME280;63802;53.232;6.570;2023-02-28T10:15:22;103371.28;;;7.53;76.65
75221;BME280;63802;53.232;6.570;2023-02-28T10:17:56;103362.28;;;7.58;75.38
75221;BME280;63802;53.232;6.570;2023-02-28T10:20:24;103357.63;;;7.63;73.43
75221;BME280;63802;53.232;6.570;2023-02-28T10:25:38;103385.69;;;7.97;72.69
75221;BME280;63802;53.232;6.570;2023-02-28T10:28:11;103395.53;;;7.93;71.39
75221;BME280;63802;53.232;6.570;2023-02-28T10:30:43;103359.75;;;7.76;71.78
75221;BME280;63802;53.232;6.570;2023-02-28T10:33:39;103361.09;;;7.74;71.70
75221;BME280;63802;53.232;6.570;2023-02-28T10:36:05;103377.63;;;8.21;71.33
75221;BME280;63802;53.232;6.570;2023-02-28T10:38:37;103363.03;;;8.12;71.29
75221;BME280;63802;53.232;6.570;2023-02-28T10:41:16;103373.28;;;8.59;69.79
75221;BME280;63802;53.232;6.570;2023-02-28T10:43:43;103347.03;;;8.73;67.75
75221;BME280;63802;53.232;6.570;2023-02-28T10:48:44;103395.94;;;9.30;64.96
75221;BME280;63802;53.232;6.570;2023-02-28T10:51:12;103350.78;;;9.01;64.62
75221;BME280;63802;53.232;6.570;2023-02-28T10:53:55;103366.59;;;8.75;63.68
75221;BME280;63802;53.232;6.570;2023-02-28T10:56:23;103374.94;;;8.84;64.57
75221;BME280;63802;53.232;6.570;2023-02-28T10:59:22;103380.94;;;9.33;64.24
75221;BME280;63802;53.232;6.570;2023-02-28T11:01:52;103398.00;;;9.38;63.88
75221;BME280;63802;53.232;6.570;2023-02-28T11:07:19;103364.97;;;10.01;61.61
75221;BME280;63802;53.232;6.570;2023-02-28T11:09:49;103360.22;;;9.93;60.79
75221;BME280;63802;53.232;6.570;2023-02-28T11:14:58;103356.88;;;9.77;60.94
75221;BME280;63802;53.232;6.570;2023-02-28T11:17:30;103327.47;;;9.93;60.20
75221;BME280;63802;53.232;6.570;2023-02-28T11:20:10;103317.50;;;10.02;59.26
75221;BME280;63802;53.232;6.570;2023-02-28T11:23:05;103351.94;;;9.61;58.67
75221;BME280;63802;53.232;6.570;2023-02-28T11:25:38;103354.59;;;9.66;57.14
75221;BME280;63802;53.232;6.570;2023-02-28T11:28:30;103369.34;;;10.02;56.48
75221;BME280;63802;53.232;6.570;2023-02-28T11:33:50;103376.53;;;9.56;55.05
75221;BME280;63802;53.232;6.570;2023-02-28T11:38:54;103351.34;;;9.64;55.24
75221;BME280;63802;53.232;6.570;2023-02-28T11:44:18;103369.84;;;10.04;56.83
75221;BME280;63802;53.232;6.570;2023-02-28T11:46:52;103332.06;;;8.70;57.34
75221;BME280;63802;53.232;6.570;2023-02-28T11:49:53;103334.69;;;7.84;60.22
75221;BME280;63802;53.232;6.570;2023-02-28T11:52:40;103333.38;;;7.77;61.17
75221;BME280;63802;53.232;6.570;2023-02-28T11:58:27;103358.38;;;7.79;62.48
75221;BME280;63802;53.232;6.570;2023-02-28T12:10:29;103317.44;;;9.32;58.87
75221;BME280;63802;53.232;6.570;2023-02-28T12:13:21;103339.84;;;10.04;59.37
75221;BME280;63802;53.232;6.570;2023-02-28T12:16:04;103311.84;;;10.17;57.71
75221;BME280;63802;53.232;6.570;2023-02-28T12:18:39;103344.47;;;10.54;56.82
75221;BME280;63802;53.232;6.570;2023-02-28T12:24:01;103323.25;;;9.82;56.83
75221;BME280;63802;53.232;6.570;2023-02-28T12:31:38;103344.38;;;8.34;58.95
75221;BME280;63802;53.232;6.570;2023-02-28T12:34:19;103290.56;;;7.92;59.77
75221;BME280;63802;53.232;6.570;2023-02-28T12:36:48;103324.47;;;8.39;59.55
75221;BME280;63802;53.232;6.570;2023-02-28T12:39:29;103299.56;;;8.22;59.41
75221;BME280;63802;53.232;6.570;2023-02-28T12:42:10;103335.31;;;8.72;58.91
75221;BME280;63802;53.232;6.570;2023-02-28T12:47:21;103331.06;;;7.99;60.02
75221;BME280;63802;53.232;6.570;2023-02-28T12:49:58;103291.53;;;7.73;59.83
75221;BME280;63802;53.232;6.570;2023-02-28T12:55:27;103286.06;;;8.69;60.42
75221;BME280;63802;53.232;6.570;2023-02-28T12:58:20;103320.72;;;8.87;59.50
75221;BME280;63802;53.232;6.570;2023-02-28T13:09:55;103294.13;;;9.21;57.13
75221;BME280;63802;53.232;6.570;2023-02-28T13:12:23;103271.97;;;9.65;57.75
75221;BME280;63802;53.232;6.570;2023-02-28T13:15:23;103270.53;;;9.54;56.50
75221;BME280;63802;53.232;6.570;2023-02-28T13:17:52;103292.00;;;9.74;56.11
75221;BME280;63802;53.232;6.570;2023-02-28T13:20:35;103286.31;;;9.57;54.86
75221;BME280;63802;53.232;6.570;2023-02-28T13:23:12;103271.59;;;9.72;54.11
75221;BME280;63802;53.232;6.570;2023-02-28T13:25:52;103273.19;;;10.10;54.00
75221;BME280;63802;53.232;6.570;2023-02-28T13:31:19;103278.03;;;8.30;56.46
75221;BME280;63802;53.232;6.570;2023-02-28T13:36:33;103284.34;;;8.21;59.40
75221;BME280;63802;53.232;6.570;2023-02-28T13:39:44;103224.94;;;7.36;58.97
75221;BME280;63802;53.232;6.570;2023-02-28T13:41:49;103283.41;;;7.24;59.98
75221;BME280;63802;53.232;6.570;2023-02-28T13:44:20;103286.13;;;7.24;61.00
75221;BME280;63802;53.232;6.570;2023-02-28T14:07:08;103248.72;;;7.55;60.96
75221;BME280;63802;53.232;6.570;2023-02-28T14:13:46;103237.03;;;7.54;58.80
75221;BME280;63802;53.232;6.570;2023-02-28T14:16:23;103224.47;;;7.63;58.62
75221;BME280;63802;53.232;6.570;2023-02-28T14:19:14;103262.50;;;7.63;58.45
75221;BME280;63802;53.232;6.570;2023-02-28T14:24:42;103284.19;;;7.73;57.66
75221;BME280;63802;53.232;6.570;2023-02-28T14:33:10;103258.25;;;7.52;58.76
75221;BME280;63802;53.232;6.570;2023-02-28T14:38:58;103278.22;;;7.27;58.82
75221;BME280;63802;53.232;6.570;2023-02-28T14:41:36;103242.78;;;7.04;58.53
75221;BME280;63802;53.232;6.570;2023-02-28T14:44:22;103281.88;;;7.08;58.07
75221;BME280;63802;53.232;6.570;2023-02-28T14:47:02;103240.53;;;6.62;57.62
75221;BME280;63802;53.232;6.570;2023-02-28T14:49:44;103272.47;;;6.75;58.45
75221;BME280;63802;53.232;6.570;2023-02-28T14:52:39;103234.81;;;6.58;59.17
75221;BME280;63802;53.232;6.570;2023-02-28T14:55:18;103224.00;;;6.48;59.27
75221;BME280;63802;53.232;6.570;2023-02-28T14:57:57;103274.38;;;6.74;60.08
75221;BME280;63802;53.232;6.570;2023-02-28T15:00:47;103243.47;;;6.65;60.88
75221;BME280;63802;53.232;6.570;2023-02-28T15:05:56;103262.97;;;6.78;62.29
75221;BME280;63802;53.232;6.570;2023-02-28T15:08:32;103263.81;;;6.73;62.17
75221;BME280;63802;53.232;6.570;2023-02-28T15:11:13;103252.13;;;6.72;62.15
75221;BME280;63802;53.232;6.570;2023-02-28T15:13:54;103253.78;;;6.68;61.88
75221;BME280;63802;53.232;6.570;2023-02-28T15:16:35;103212.09;;;6.44;62.07
75221;BME280;63802;53.232;6.570;2023-02-28T15:19:14;103264.13;;;6.56;61.17
75221;BME280;63802;53.232;6.570;2023-02-28T15:21:47;103233.81;;;6.34;60.94
75221;BME280;63802;53.232;6.570;2023-02-28T15:24:30;103215.94;;;6.08;61.02
75221;BME280;63802;53.232;6.570;2023-02-28T15:27:02;103237.63;;;6.03;61.58
75221;BME280;63802;53.232;6.570;2023-02-28T15:29:41;103236.56;;;5.99;62.15
75221;BME280;63802;53.232;6.570;2023-02-28T15:32:30;103228.97;;;5.91;61.64
75221;BME280;63802;53.232;6.570;2023-02-28T15:35:38;103237.09;;;5.91;62.37
75221;BME280;63802;53.232;6.570;2023-02-28T15:38:17;103235.22;;;5.86;62.15
75221;BME280;63802;53.232;6.570;2023-02-28T15:41:01;103204.03;;;5.59;62.13
75221;BME280;63802;53.232;6.570;2023-02-28T15:43:32;103214.31;;;5.72;61.63
75221;BME280;63802;53.232;6.570;2023-02-28T15:46:11;103258.50;;;6.02;61.69